Time;durP1;ratioP1;P1;durP2;ratioP2;P2;SDS_P1;SDS_P2;PMS_P1;PMS_P2;Temp;Humidity;BMP_temperature;BMP_pressure;BME280_temperature;BME280_humidity;BME280_pressure;Samples;Min_cycle;Max_cycle;Signal;HPM_P1;HPM_P2
2022/10/28 00:01:13;;;;;;;;;;;;;;;21.35;54.90;101471.59;5118719;27;19931;-35
2022/10/28 00:03:41;;;;;;;;;;;;;;;21.36;54.85;101477.97;5140245;27;19946;-36
2022/10/28 00:06:07;;;;;;;;;;;;;;;21.36;54.80;101467.69;5123030;27;20484;-36
2022/10/28 00:08:32;;;;;;;;;;;;;;;21.35;54.82;101463.28;5141504;27;20013;-36
2022/10/28 00:11:06;;;;;;;;;;;;;;;21.35;54.79;101462.44;5138649;27;20028;-36
2022/10/28 00:13:32;;;;;;;;;;;;;;;21.36;54.89;101450.25;5120106;27;20014;-36
2022/10/28 00:16:05;;;;;;;;;;;;;;;21.35;54.86;101443.06;5119533;27;19931;-36
2022/10/28 00:18:31;;;;;;;;;;;;;;;21.35;54.88;101454.97;5138126;27;20559;-35
2022/10/28 00:20:58;;;;;;;;;;;;;;;21.35;54.87;101462.44;5121092;27;19934;-36
2022/10/28 00:23:24;;;;;;;;;;;;;;;21.35;54.82;101454.16;5120076;27;19963;-36
2022/10/28 00:25:49;;;;;;;;;;;;;;;21.35;54.77;101462.44;5139373;27;19927;-36
2022/10/28 00:28:15;;;;;;;;;;;;;;;21.35;54.83;101468.00;5137213;27;20347;-36
2022/10/28 00:30:41;;;;;;;;;;;;;;;21.35;54.85;101459.69;5141482;27;20008;-36
2022/10/28 00:33:06;;;;;;;;;;;;;;;21.34;54.80;101458.84;5136902;27;19938;-35
2022/10/28 00:35:32;;;;;;;;;;;;;;;21.34;54.91;101458.84;5140700;27;19954;-36
2022/10/28 00:37:58;;;;;;;;;;;;;;;21.35;54.90;101451.38;5135661;27;19955;-36
2022/10/28 00:40:23;;;;;;;;;;;;;;;21.35;54.81;101454.16;5142553;27;19930;-36
2022/10/28 00:42:49;;;;;;;;;;;;;;;21.36;54.84;101453.84;5135122;27;19980;-36
2022/10/28 00:45:15;;;;;;;;;;;;;;;21.35;54.87;101456.91;5137434;27;19928;-36
2022/10/28 00:47:41;;;;;;;;;;;;;;;21.35;54.82;101456.91;5139452;27;20298;-36
2022/10/28 00:50:14;;;;;;;;;;;;;;;21.35;54.86;101456.91;5124409;27;20023;-36
2022/10/28 00:52:39;;;;;;;;;;;;;;;21.34;54.95;101458.03;5119668;27;20011;-35
2022/10/28 00:55:05;;;;;;;;;;;;;;;21.34;54.82;101456.09;5119643;27;19930;-35
2022/10/28 00:57:32;;;;;;;;;;;;;;;21.34;54.82;101467.16;5137314;27;20446;-36
2022/10/28 00:59:58;;;;;;;;;;;;;;;21.34;54.78;101464.41;5139897;27;20379;-36
2022/10/28 01:02:23;;;;;;;;;;;;;;;21.34;54.90;101472.72;5139818;27;20418;-36
2022/10/28 01:04:49;;;;;;;;;;;;;;;21.34;54.84;101469.13;5139690;27;19954;-36
2022/10/28 01:07:15;;;;;;;;;;;;;;;21.34;54.92;101463.56;5139616;27;19983;-36
2022/10/28 01:09:40;;;;;;;;;;;;;;;21.34;54.98;101458.03;5124151;27;19931;-36
2022/10/28 01:12:26;;;;;;;;;;;;;;;21.34;54.87;101458.84;5141441;27;19924;-36
2022/10/28 01:15:07;;;;;;;;;;;;;;;21.33;54.92;101454.44;5124871;27;20666;-36
2022/10/28 01:17:53;;;;;;;;;;;;;;;21.33;54.75;101451.66;5133899;27;20038;-36
2022/10/28 01:20:38;;;;;;;;;;;;;;;21.34;54.85;101445.00;5122649;27;20358;-36
2022/10/28 01:23:12;;;;;;;;;;;;;;;21.34;54.79;101449.72;5124270;27;19924;-35
2022/10/28 01:25:53;;;;;;;;;;;;;;;21.33;54.85;101445.25;5141712;27;19989;-35
2022/10/28 01:28:30;;;;;;;;;;;;;;;21.34;54.98;101452.50;5133984;27;20414;-36
2022/10/28 01:31:15;;;;;;;;;;;;;;;21.34;54.86;101455.25;5140560;27;19963;-36
2022/10/28 01:33:45;;;;;;;;;;;;;;;21.33;54.89;101459.97;5122641;27;19930;-36
2022/10/28 01:36:31;;;;;;;;;;;;;;;21.32;54.81;101449.97;5139819;27;19931;-36
2022/10/28 01:38:58;;;;;;;;;;;;;;;21.34;54.97;101458.84;5123644;27;20030;-36
2022/10/28 01:41:28;;;;;;;;;;;;;;;21.34;54.81;101463.56;5139573;27;20022;-36
2022/10/28 01:43:56;;;;;;;;;;;;;;;21.33;54.95;101459.13;5137720;27;20127;-36
2022/10/28 01:46:24;;;;;;;;;;;;;;;21.34;54.93;101458.03;5137326;27;19981;-35
2022/10/28 01:48:51;;;;;;;;;;;;;;;21.33;54.91;101450.81;5118213;27;20412;-36
2022/10/28 01:51:21;;;;;;;;;;;;;;;21.33;54.92;101450.81;5140390;27;19977;-36
2022/10/28 01:53:48;;;;;;;;;;;;;;;21.33;54.88;101453.56;5121029;27;20019;-35
2022/10/28 01:56:14;;;;;;;;;;;;;;;21.34;54.89;101452.50;5121934;27;19973;-36
2022/10/28 01:58:40;;;;;;;;;;;;;;;21.33;54.99;101446.13;5139463;27;20002;-36
2022/10/28 02:01:06;;;;;;;;;;;;;;;21.32;54.95;101444.44;5136609;27;19934;-36
2022/10/28 02:03:32;;;;;;;;;;;;;;;21.33;54.91;101439.72;5117158;27;19970;-36
2022/10/28 02:05:59;;;;;;;;;;;;;;;21.32;54.92;101433.38;5118171;27;20318;-36
2022/10/28 02:08:29;;;;;;;;;;;;;;;21.32;54.84;101432.53;5117582;27;19993;-36
2022/10/28 02:10:57;;;;;;;;;;;;;;;21.31;54.85;101434.44;5136064;27;19950;-36
2022/10/28 02:13:24;;;;;;;;;;;;;;;21.32;54.91;101421.44;5138528;27;20001;-36
2022/10/28 02:15:52;;;;;;;;;;;;;;;21.32;55.04;101425.03;5135742;27;20393;-36
2022/10/28 02:18:21;;;;;;;;;;;;;;;21.33;54.85;101431.41;5134299;27;20014;-35
2022/10/28 02:20:56;;;;;;;;;;;;;;;21.32;54.88;101416.75;5135582;27;19958;-36
2022/10/28 02:23:26;;;;;;;;;;;;;;;21.32;54.96;101415.91;5136124;27;19931;-36
2022/10/28 02:25:56;;;;;;;;;;;;;;;21.32;54.85;101424.22;5120938;27;20060;-36
2022/10/28 02:28:23;;;;;;;;;;;;;;;21.31;54.98;101417.81;5138387;27;20017;-36
2022/10/28 02:30:51;;;;;;;;;;;;;;;21.30;54.89;101422.53;5136326;27;20061;-36
2022/10/28 02:33:18;;;;;;;;;;;;;;;21.30;54.91;101417.00;5139950;27;20570;-36
2022/10/28 02:35:45;;;;;;;;;;;;;;;21.31;54.93;101417.81;5120232;27;20014;-36
2022/10/28 02:38:16;;;;;;;;;;;;;;;21.31;55.07;101409.50;5135506;27;19973;-35
2022/10/28 02:40:41;;;;;;;;;;;;;;;21.31;54.95;101406.75;5137416;27;20015;-35
2022/10/28 02:43:08;;;;;;;;;;;;;;;21.31;54.81;101409.50;5140813;27;19927;-35
2022/10/28 02:45:34;;;;;;;;;;;;;;;21.30;54.81;101403.16;5135480;27;19974;-36
2022/10/28 02:48:02;;;;;;;;;;;;;;;21.32;54.91;101404.84;5135871;27;19966;-37
2022/10/28 02:50:31;;;;;;;;;;;;;;;21.31;54.89;101409.50;5121013;27;19930;-37
2022/10/28 02:52:57;;;;;;;;;;;;;;;21.31;54.89;101409.50;5140891;27;20429;-36
2022/10/28 02:55:23;;;;;;;;;;;;;;;21.31;55.00;101415.06;5115895;27;20034;-36
2022/10/28 02:57:48;;;;;;;;;;;;;;;21.30;54.95;101411.47;5142908;27;20011;-36
2022/10/28 03:00:15;;;;;;;;;;;;;;;21.30;54.95;101403.16;5134399;27;20147;-35
2022/10/28 03:02:40;;;;;;;;;;;;;;;21.30;54.93;101411.47;5116291;27;19981;-36
2022/10/28 03:05:06;;;;;;;;;;;;;;;21.31;54.92;101403.97;5136210;27;19927;-36
2022/10/28 03:07:32;;;;;;;;;;;;;;;21.31;54.99;101401.22;5134145;27;20022;-36
2022/10/28 03:09:57;;;;;;;;;;;;;;;21.30;54.91;101403.16;5137290;27;19973;-36
2022/10/28 03:12:23;;;;;;;;;;;;;;;21.30;54.95;101397.59;5137157;27;20395;-36
2022/10/28 03:14:48;;;;;;;;;;;;;;;21.31;54.99;101392.91;5138042;27;19942;-36
2022/10/28 03:17:14;;;;;;;;;;;;;;;21.30;54.91;101386.53;5135041;27;19927;-36
2022/10/28 03:19:40;;;;;;;;;;;;;;;21.30;54.81;101392.06;5138226;27;19934;-36
2022/10/28 03:22:05;;;;;;;;;;;;;;;21.30;54.83;101391.25;5133129;27;20047;-36
2022/10/28 03:24:31;;;;;;;;;;;;;;;21.30;54.94;101386.53;5135782;27;19938;-36
2022/10/28 03:26:56;;;;;;;;;;;;;;;21.31;54.99;101381.81;5140938;27;20291;-36
2022/10/28 03:29:22;;;;;;;;;;;;;;;21.30;54.86;101385.69;5132646;27;19931;-36
2022/10/28 03:31:47;;;;;;;;;;;;;;;21.29;54.86;101384.88;5131542;27;19939;-35
2022/10/28 03:34:13;;;;;;;;;;;;;;;21.30;54.86;101386.53;5143671;27;20340;-36
2022/10/28 03:36:38;;;;;;;;;;;;;;;21.29;54.99;101387.66;5136291;27;19938;-36
2022/10/28 03:39:04;;;;;;;;;;;;;;;21.29;55.03;101384.88;5135481;27;19938;-36
2022/10/28 03:41:29;;;;;;;;;;;;;;;21.30;54.85;101381.00;5132540;27;19954;-36
2022/10/28 03:43:55;;;;;;;;;;;;;;;21.29;54.99;101381.28;5136431;27;19930;-35
2022/10/28 03:46:21;;;;;;;;;;;;;;;21.30;54.96;101380.16;5114472;27;19923;-36
2022/10/28 03:48:46;;;;;;;;;;;;;;;21.28;54.94;101369.34;5134665;27;19930;-36
2022/10/28 03:51:12;;;;;;;;;;;;;;;21.29;54.82;101364.66;5135454;27;19923;-35
2022/10/28 03:53:37;;;;;;;;;;;;;;;21.30;54.95;101369.09;5136065;27;19954;-36
2022/10/28 03:56:03;;;;;;;;;;;;;;;21.30;54.89;101361.59;5137047;27;19931;-36
2022/10/28 03:58:29;;;;;;;;;;;;;;;21.30;54.95;101363.53;5132762;27;19969;-35
2022/10/28 04:00:54;;;;;;;;;;;;;;;21.29;54.90;101362.72;5134353;27;19930;-36
2022/10/28 04:03:21;;;;;;;;;;;;;;;21.29;54.96;101365.50;5115640;27;20306;-36
2022/10/28 04:05:48;;;;;;;;;;;;;;;21.29;55.05;101359.13;5118631;27;19977;-36
2022/10/28 04:08:15;;;;;;;;;;;;;;;21.29;55.01;101362.72;5115837;27;19965;-36
2022/10/28 04:10:40;;;;;;;;;;;;;;;21.29;54.95;101367.44;5120405;27;19970;-36
2022/10/28 04:13:12;;;;;;;;;;;;;;;21.29;55.03;101371.03;5140594;27;19931;-36
2022/10/28 04:15:38;;;;;;;;;;;;;;;21.30;54.92;101363.53;5117288;27;19939;-36
2022/10/28 04:18:03;;;;;;;;;;;;;;;21.30;54.99;101366.31;5134904;27;19923;-35
2022/10/28 04:20:29;;;;;;;;;;;;;;;21.29;54.99;101376.56;5133231;27;19970;-35
2022/10/28 04:22:54;;;;;;;;;;;;;;;21.29;54.99;101379.34;5120076;27;19950;-36
2022/10/28 04:25:23;;;;;;;;;;;;;;;21.29;54.88;101384.06;5135605;27;19974;-36
2022/10/28 04:27:48;;;;;;;;;;;;;;;21.30;55.02;101388.47;5139026;27;20017;-36
2022/10/28 04:30:14;;;;;;;;;;;;;;;21.29;54.99;101390.41;5116638;27;19934;-36
2022/10/28 04:32:40;;;;;;;;;;;;;;;21.28;54.96;101388.75;5133995;27;19923;-36
2022/10/28 04:35:06;;;;;;;;;;;;;;;21.29;55.05;101384.06;5116862;27;19958;-36
2022/10/28 04:37:31;;;;;;;;;;;;;;;21.29;54.80;101375.75;5117522;27;20006;-35
2022/10/28 04:39:57;;;;;;;;;;;;;;;21.29;55.01;101375.75;5133794;27;19923;-35
2022/10/28 04:42:22;;;;;;;;;;;;;;;21.29;55.04;101378.50;5135540;27;19927;-36
2022/10/28 04:44:48;;;;;;;;;;;;;;;21.29;55.04;101386.81;5135245;27;19923;-39
2022/10/28 04:47:13;;;;;;;;;;;;;;;21.28;55.00;101383.19;5141476;27;19931;-37
2022/10/28 04:49:39;;;;;;;;;;;;;;;21.29;54.95;101397.91;5140671;27;19940;-37
2022/10/28 04:52:05;;;;;;;;;;;;;;;21.28;54.98;101397.03;5137503;27;20387;-36
2022/10/28 04:54:30;;;;;;;;;;;;;;;21.28;55.06;101393.44;5137351;27;19935;-38
2022/10/28 04:56:56;;;;;;;;;;;;;;;21.29;54.91;101386.81;5137453;27;20283;-36
2022/10/28 04:59:21;;;;;;;;;;;;;;;21.29;54.94;101384.88;5140402;27;19931;-36
2022/10/28 05:01:47;;;;;;;;;;;;;;;21.29;55.11;101381.28;5137827;27;19984;-35
2022/10/28 05:04:13;;;;;;;;;;;;;;;21.29;55.02;101381.28;5133005;27;19927;-35
2022/10/28 05:06:38;;;;;;;;;;;;;;;21.28;54.98;101385.97;5134599;27;19930;-35
2022/10/28 05:09:04;;;;;;;;;;;;;;;21.29;54.95;101387.66;5136337;27;19927;-36
2022/10/28 05:11:30;;;;;;;;;;;;;;;21.29;54.92;101384.06;5135904;27;20307;-35
2022/10/28 05:13:55;;;;;;;;;;;;;;;21.28;54.91;101383.19;5123664;27;19967;-35
2022/10/28 05:16:21;;;;;;;;;;;;;;;21.28;54.98;101391.50;5135025;27;19983;-36
2022/10/28 05:18:47;;;;;;;;;;;;;;;21.27;55.05;101387.09;5137249;27;19935;-36
2022/10/28 05:21:12;;;;;;;;;;;;;;;21.29;54.92;101384.06;5136754;27;19923;-35
2022/10/28 05:23:38;;;;;;;;;;;;;;;21.28;54.95;101391.50;5142224;27;19931;-36
2022/10/28 05:26:03;;;;;;;;;;;;;;;21.28;54.92;101394.28;5116855;27;20307;-36
2022/10/28 05:28:29;;;;;;;;;;;;;;;21.28;55.08;101393.44;5135433;27;19931;-36
2022/10/28 05:30:54;;;;;;;;;;;;;;;21.27;55.04;101400.94;5137844;27;19924;-36
2022/10/28 05:33:20;;;;;;;;;;;;;;;21.28;54.98;101396.22;5136100;27;19968;-36
2022/10/28 05:35:46;;;;;;;;;;;;;;;21.27;54.98;101391.81;5120638;27;19931;-36
2022/10/28 05:38:11;;;;;;;;;;;;;;;21.28;55.00;101385.97;5139690;27;19972;-35
2022/10/28 05:40:37;;;;;;;;;;;;;;;21.28;54.89;101387.91;5131668;27;20360;-36
2022/10/28 05:43:02;;;;;;;;;;;;;;;21.27;54.98;101387.09;5131539;27;19927;-36
2022/10/28 05:45:28;;;;;;;;;;;;;;;21.28;54.92;101390.69;5130948;27;19950;-36
2022/10/28 05:47:53;;;;;;;;;;;;;;;21.28;55.04;101383.19;5123276;27;20348;-35
2022/10/28 05:50:19;;;;;;;;;;;;;;;21.28;55.03;101385.13;5122596;27;20314;-36
2022/10/28 05:52:46;;;;;;;;;;;;;;;21.27;55.09;101386.25;5107985;27;19923;-36
2022/10/28 05:55:11;;;;;;;;;;;;;;;21.28;55.10;101387.91;5099234;27;19976;-36
2022/10/28 05:57:37;;;;;;;;;;;;;;;21.29;55.03;101387.66;5124382;27;19975;-37
2022/10/28 06:00:03;;;;;;;;;;;;;;;21.28;55.05;101380.44;5111261;27;19931;-37
2022/10/28 06:02:28;;;;;;;;;;;;;;;21.29;55.96;101378.50;5112743;27;19931;-37
2022/10/28 06:04:54;;;;;;;;;;;;;;;21.30;55.55;101380.16;5113582;27;19983;-37
2022/10/28 06:07:19;;;;;;;;;;;;;;;21.29;55.29;101395.97;5112989;27;19939;-37
2022/10/28 06:09:45;;;;;;;;;;;;;;;21.30;55.21;101388.47;5126475;27;20287;-38
2022/10/28 06:12:10;;;;;;;;;;;;;;;21.32;55.19;101393.75;5130739;27;19923;-38
2022/10/28 06:14:36;;;;;;;;;;;;;;;21.30;55.16;101383.75;5130986;27;20273;-38
2022/10/28 06:17:02;;;;;;;;;;;;;;;21.30;55.20;101389.28;5131896;27;19923;-38
2022/10/28 06:19:27;;;;;;;;;;;;;;;21.32;55.17;101390.97;5123178;27;20378;-38
2022/10/28 06:21:53;;;;;;;;;;;;;;;21.31;55.36;101398.44;5126933;27;19931;-38
2022/10/28 06:24:18;;;;;;;;;;;;;;;21.31;55.28;101401.22;5130201;27;19930;-39
2022/10/28 06:26:44;;;;;;;;;;;;;;;21.31;55.24;101398.44;5128116;27;20024;-38
2022/10/28 06:29:10;;;;;;;;;;;;;;;21.30;55.26;101392.06;5126582;27;19924;-38
2022/10/28 06:31:38;;;;;;;;;;;;;;;21.32;55.16;101413.16;5111884;27;19988;-38
2022/10/28 06:34:04;;;;;;;;;;;;;;;21.32;55.14;101408.44;5132164;27;20019;-38
2022/10/28 06:36:30;;;;;;;;;;;;;;;21.33;55.23;101409.25;5127751;27;19959;-38
2022/10/28 06:38:55;;;;;;;;;;;;;;;21.32;55.17;101400.13;5109312;27;20377;-38
2022/10/28 06:41:21;;;;;;;;;;;;;;;21.34;55.12;101410.94;5125845;27;21574;-38
2022/10/28 06:43:46;;;;;;;;;;;;;;;21.33;55.17;101410.09;5124814;27;20008;-37
2022/10/28 06:46:12;;;;;;;;;;;;;;;21.34;55.16;101409.00;5123633;27;19938;-38
2022/10/28 06:48:37;;;;;;;;;;;;;;;21.35;55.21;101404.28;5125854;27;19970;-38
2022/10/28 06:51:03;;;;;;;;;;;;;;;21.36;55.22;101403.16;5122049;27;19939;-37
2022/10/28 06:53:29;;;;;;;;;;;;;;;21.35;55.32;101395.97;5121103;27;20002;-38
2022/10/28 06:55:55;;;;;;;;;;;;;;;21.36;55.13;101411.47;5123613;27;19947;-38
2022/10/28 06:58:20;;;;;;;;;;;;;;;21.37;55.12;101416.72;5108797;27;20391;-38
2022/10/28 07:00:46;;;;;;;;;;;;;;;21.36;55.15;101415.06;5124441;27;19952;-38
2022/10/28 07:03:12;;;;;;;;;;;;;;;21.37;55.12;101410.34;5104075;27;19963;-38
2022/10/28 07:05:37;;;;;;;;;;;;;;;21.37;55.09;101416.72;5116933;27;19923;-40
2022/10/28 07:08:03;;;;;;;;;;;;;;;21.38;55.20;101410.06;5120532;27;19931;-37
2022/10/28 07:10:28;;;;;;;;;;;;;;;21.38;55.10;101412.84;5119165;27;19931;-38
2022/10/28 07:12:54;;;;;;;;;;;;;;;21.37;55.12;101402.84;5123174;27;20303;-38
2022/10/28 07:15:20;;;;;;;;;;;;;;;21.38;55.07;101410.06;5123430;27;19980;-37
2022/10/28 07:18:01;;;;;;;;;;;;;;;21.38;55.03;101420.34;5125789;27;19931;-38
2022/10/28 07:20:27;;;;;;;;;;;;;;;21.38;55.21;101417.56;5127226;27;19966;-38
2022/10/28 07:22:56;;;;;;;;;;;;;;;21.38;55.10;101423.09;5107137;27;20311;-38
2022/10/28 07:25:21;;;;;;;;;;;;;;;21.38;55.03;101423.09;5127917;27;19993;-38
2022/10/28 07:27:47;;;;;;;;;;;;;;;21.37;55.03;101422.25;5128367;27;20466;-38
2022/10/28 07:30:13;;;;;;;;;;;;;;;21.37;55.11;101422.25;5129722;27;20115;-38
2022/10/28 07:32:38;;;;;;;;;;;;;;;21.37;55.06;101433.34;5133572;27;19927;-37
2022/10/28 07:35:04;;;;;;;;;;;;;;;21.36;55.03;101440.00;5127650;27;19978;-38
2022/10/28 07:37:29;;;;;;;;;;;;;;;21.38;55.14;101436.97;5106666;27;19966;-37
2022/10/28 07:39:55;;;;;;;;;;;;;;;21.38;55.10;101436.97;5129693;27;20039;-38
2022/10/28 07:42:20;;;;;;;;;;;;;;;21.36;55.11;101430.84;5125662;27;19931;-38
2022/10/28 07:44:46;;;;;;;;;;;;;;;21.37;55.10;101432.50;5122322;27;19935;-38
2022/10/28 07:47:12;;;;;;;;;;;;;;;21.37;55.07;101443.59;5125294;27;19923;-38
2022/10/28 07:49:37;;;;;;;;;;;;;;;21.37;55.03;101443.59;5123399;27;19931;-37
2022/10/28 07:52:03;;;;;;;;;;;;;;;21.36;55.14;101445.53;5121363;27;19932;-37
2022/10/28 07:54:30;;;;;;;;;;;;;;;21.37;55.13;101451.91;5123968;27;19927;-38
2022/10/28 07:56:56;;;;;;;;;;;;;;;21.37;55.00;101460.22;5133077;27;19999;-38
2022/10/28 07:59:23;;;;;;;;;;;;;;;21.36;55.04;101464.94;5121524;27;19924;-38
2022/10/28 08:01:52;;;;;;;;;;;;;;;21.36;55.07;101464.09;5121684;27;21123;-38
2022/10/28 08:04:17;;;;;;;;;;;;;;;21.37;55.07;101460.22;5107567;27;20562;-38
2022/10/28 08:06:43;;;;;;;;;;;;;;;21.36;55.06;101453.03;5119667;27;19927;-38
2022/10/28 08:09:09;;;;;;;;;;;;;;;21.36;55.07;101451.06;5119919;27;19939;-38
2022/10/28 08:11:34;;;;;;;;;;;;;;;21.30;56.62;101454.97;5120766;27;19928;-38
2022/10/28 08:14:00;;;;;;;;;;;;;;;21.36;56.24;101445.53;5126452;27;20359;-38
2022/10/28 08:16:27;;;;;;;;;;;;;;;21.37;55.63;101441.66;5097446;27;20572;-38
2022/10/28 08:18:53;;;;;;;;;;;;;;;21.38;55.67;101429.47;5120893;27;20022;-38
2022/10/28 08:21:19;;;;;;;;;;;;;;;21.39;55.59;101433.91;5130560;27;20325;-38
2022/10/28 08:23:45;;;;;;;;;;;;;;;21.39;55.64;101428.34;5128942;27;19927;-38
2022/10/28 08:26:11;;;;;;;;;;;;;;;21.39;55.72;101430.31;5129576;27;19971;-39
2022/10/28 08:28:37;;;;;;;;;;;;;;;21.39;55.62;101438.63;5132677;27;20421;-38
2022/10/28 08:31:03;;;;;;;;;;;;;;;21.40;55.59;101441.09;5124437;27;19927;-38
2022/10/28 08:33:34;;;;;;;;;;;;;;;21.40;55.58;101443.03;5103940;27;19931;-39
2022/10/28 08:36:00;;;;;;;;;;;;;;;21.40;55.47;101438.31;5122521;27;19951;-39
2022/10/28 08:38:25;;;;;;;;;;;;;;;21.42;55.55;101433.34;5113646;27;19943;-38
2022/10/28 08:41:11;;;;;;;;;;;;;;;21.44;55.56;101433.03;5122765;27;20375;-38
2022/10/28 08:43:41;;;;;;;;;;;;;;;21.46;55.54;101428.03;5104786;27;20025;-37
2022/10/28 08:49:01;;;;;;;;;;;;;;;21.44;55.52;101433.88;5158345;27;20138;-38
2022/10/28 08:51:31;;;;;;;;;;;;;;;21.44;55.73;101433.88;5127669;27;19935;-37
2022/10/28 08:53:57;;;;;;;;;;;;;;;21.44;55.59;101428.31;5149194;27;20021;-38
2022/10/28 08:56:27;;;;;;;;;;;;;;;21.45;55.50;101426.38;5144323;27;20083;-38
2022/10/28 08:58:55;;;;;;;;;;;;;;;21.45;55.37;101418.06;5126989;27;20601;-38
2022/10/28 09:01:32;;;;;;;;;;;;;;;21.45;55.29;101418.06;5145370;27;20360;-38
2022/10/28 09:03:58;;;;;;;;;;;;;;;21.46;55.33;101419.72;5147617;27;20025;-38
2022/10/28 09:06:23;;;;;;;;;;;;;;;21.46;55.76;101426.13;5148244;27;19957;-38
2022/10/28 09:08:50;;;;;;;;;;;;;;;21.46;55.43;101423.34;5148564;27;19927;-37
2022/10/28 09:11:36;;;;;;;;;;;;;;;21.48;55.40;101426.66;5151310;27;20347;-38
2022/10/28 09:14:07;;;;;;;;;;;;;;;21.47;55.34;101415.84;5134308;27;20040;-38
2022/10/28 09:16:36;;;;;;;;;;;;;;;21.47;55.42;101421.41;5146247;27;20026;-40
2022/10/28 09:19:22;;;;;;;;;;;;;;;21.48;55.43;101420.28;5150159;27;20533;-39
2022/10/28 09:21:50;;;;;;;;;;;;;;;21.48;55.35;101411.97;5139265;27;19981;-38
2022/10/28 09:24:18;;;;;;;;;;;;;;;21.48;55.36;101411.97;5150228;27;19926;-38
2022/10/28 09:26:47;;;;;;;;;;;;;;;21.49;55.33;101408.06;5135130;27;19965;-38
2022/10/28 09:29:16;;;;;;;;;;;;;;;21.49;55.33;101410.84;5150444;27;19975;-38
2022/10/28 09:31:45;;;;;;;;;;;;;;;21.50;55.29;101418.03;5126319;27;20014;-38
2022/10/28 09:36:54;;;;;;;;;;;;;;;21.51;55.33;101405.88;5144562;27;19926;-35
2022/10/28 09:39:21;;;;;;;;;;;;;;;21.50;55.19;101416.13;5146056;27;20039;-35
2022/10/28 09:41:52;;;;;;;;;;;;;;;21.51;55.25;101411.41;5138346;27;20058;-38
2022/10/28 09:44:27;;;;;;;;;;;;;;;21.51;55.41;101412.22;5140297;27;19927;-38
2022/10/28 09:46:53;;;;;;;;;;;;;;;21.52;55.40;101418.59;5123702;27;20011;-38
2022/10/28 09:49:21;;;;;;;;;;;;;;;21.54;55.29;101413.59;5147073;27;20406;-38
2022/10/28 09:51:49;;;;;;;;;;;;;;;21.51;55.30;101412.22;5127026;27;20050;-37
2022/10/28 09:54:15;;;;;;;;;;;;;;;21.53;55.30;101410.00;5156070;27;20408;-37
2022/10/28 09:56:40;;;;;;;;;;;;;;;21.53;55.24;101418.31;5149326;27;19973;-38
2022/10/28 09:59:06;;;;;;;;;;;;;;;21.52;55.30;101416.66;5153385;27;20012;-37
2022/10/28 10:01:32;;;;;;;;;;;;;;;21.50;55.28;101416.13;5155633;27;20069;-38
2022/10/28 10:03:58;;;;;;;;;;;;;;;21.51;55.30;101420.53;5136404;27;20436;-38
2022/10/28 10:06:25;;;;;;;;;;;;;;;21.50;55.23;101418.91;5149858;27;20189;-38
2022/10/28 10:08:50;;;;;;;;;;;;;;;21.51;55.34;101433.56;5158915;27;20021;-38
2022/10/28 10:11:25;;;;;;;;;;;;;;;21.51;55.17;101423.31;5154847;27;19923;-37
2022/10/28 10:13:50;;;;;;;;;;;;;;;21.51;55.22;101426.09;5157983;27;19970;-38
2022/10/28 10:16:17;;;;;;;;;;;;;;;21.51;55.32;101414.19;5141720;27;20330;-39
2022/10/28 10:18:47;;;;;;;;;;;;;;;21.51;55.17;101423.31;5136443;27;20419;-38
2022/10/28 10:21:13;;;;;;;;;;;;;;;21.50;55.24;101421.66;5135864;27;19967;-38
2022/10/28 10:23:38;;;;;;;;;;;;;;;21.50;55.26;101420.81;5120070;27;19962;-38
2022/10/28 10:26:11;;;;;;;;;;;;;;;21.51;55.26;101423.31;5139672;27;20382;-38
2022/10/28 10:28:41;;;;;;;;;;;;;;;21.50;55.24;101416.13;5120430;27;20046;-38
2022/10/28 10:31:07;;;;;;;;;;;;;;;21.50;55.25;101418.91;5135991;27;19974;-38
2022/10/28 10:33:33;;;;;;;;;;;;;;;21.49;55.24;101422.75;5131584;27;20027;-38
2022/10/28 10:36:01;;;;;;;;;;;;;;;21.50;55.25;101427.22;5109771;27;19951;-38
2022/10/28 10:38:27;;;;;;;;;;;;;;;21.49;55.23;101417.22;5129245;27;19931;-38
2022/10/28 10:40:52;;;;;;;;;;;;;;;21.49;55.22;101414.44;5130389;27;20514;-38
2022/10/28 10:43:33;;;;;;;;;;;;;;;21.49;55.31;101411.66;5127810;27;19927;-38
2022/10/28 10:46:03;;;;;;;;;;;;;;;21.49;55.21;101419.97;5116627;27;19977;-37
2022/10/28 10:48:31;;;;;;;;;;;;;;;21.49;55.28;101413.63;5108362;27;20478;-40
2022/10/28 10:50:56;;;;;;;;;;;;;;;21.48;55.29;101410.03;5087216;28;19927;-38
2022/10/28 10:53:24;;;;;;;;;;;;;;;21.50;55.29;101401.41;5105945;27;19974;-38
2022/10/28 10:55:51;;;;;;;;;;;;;;;21.49;55.24;101413.63;5091078;28;20031;-39
2022/10/28 10:58:17;;;;;;;;;;;;;;;21.49;55.17;101405.31;5094354;28;19974;-38
2022/10/28 11:00:47;;;;;;;;;;;;;;;21.49;55.20;101410.84;5116863;28;20414;-38
2022/10/28 11:03:16;;;;;;;;;;;;;;;21.49;55.25;101405.31;5120592;28;20414;-38
2022/10/28 11:05:49;;;;;;;;;;;;;;;21.49;55.28;101406.13;5118162;27;19974;-38
2022/10/28 11:08:26;;;;;;;;;;;;;;;21.48;55.26;101392.56;5117986;28;20306;-38
2022/10/28 11:11:09;;;;;;;;;;;;;;;21.46;56.10;101392.88;5111339;28;19977;-38
2022/10/28 11:13:35;;;;;;;;;;;;;;;21.49;55.41;101388.69;5093379;28;19974;-38
2022/10/28 11:16:01;;;;;;;;;;;;;;;21.50;55.42;101395.88;5110278;28;19923;-39
2022/10/28 11:18:30;;;;;;;;;;;;;;;21.48;55.41;101387.84;5101679;28;19931;-38
2022/10/28 11:21:05;;;;;;;;;;;;;;;21.49;55.40;101385.91;5110886;27;20095;-38
2022/10/28 11:23:50;;;;;;;;;;;;;;;21.50;55.35;101380.09;5116974;27;20251;-38
2022/10/28 11:26:16;;;;;;;;;;;;;;;21.50;55.25;101371.78;5102864;28;20026;-38
2022/10/28 11:31:35;;;;;;;;;;;;;;;21.51;55.32;101367.06;5166285;27;19933;-36
2022/10/28 11:34:21;;;;;;;;;;;;;;;21.51;55.33;101358.75;5134919;27;19928;-36
2022/10/28 11:36:57;;;;;;;;;;;;;;;21.51;55.39;101362.34;5131138;27;20041;-36
2022/10/28 11:39:25;;;;;;;;;;;;;;;21.52;55.27;101360.41;5142406;27;19997;-36
2022/10/28 11:41:55;;;;;;;;;;;;;;;21.52;55.28;101366.78;5129750;27;20022;-38
2022/10/28 11:44:31;;;;;;;;;;;;;;;21.54;55.38;101355.38;5148499;27;20014;-39
2022/10/28 11:47:17;;;;;;;;;;;;;;;21.54;55.23;101361.78;5141615;27;19927;-38
2022/10/28 11:50:02;;;;;;;;;;;;;;;21.53;55.25;101360.09;5133889;27;19963;-38
2022/10/28 11:52:48;;;;;;;;;;;;;;;21.55;55.35;101354.28;5131410;27;19977;-38
2022/10/28 11:55:33;;;;;;;;;;;;;;;21.54;55.27;101355.38;5134569;27;20032;-37
2022/10/28 11:58:19;;;;;;;;;;;;;;;21.54;55.23;101353.47;5131868;27;20429;-39
2022/10/28 12:00:49;;;;;;;;;;;;;;;21.56;55.20;101349.56;5132809;27;20443;-37
2022/10/28 12:03:22;;;;;;;;;;;;;;;21.54;55.41;101356.25;5152144;27;19966;-39
2022/10/28 12:05:51;;;;;;;;;;;;;;;21.56;55.33;101341.25;5148345;27;19957;-38
2022/10/28 12:10:59;;;;;;;;;;;;;;;21.57;55.25;101329.06;5170085;27;19926;-36
2022/10/28 12:13:32;;;;;;;;;;;;;;;21.58;55.21;101325.16;5156197;27;19958;-39
2022/10/28 12:16:18;;;;;;;;;;;;;;;21.58;55.20;101322.38;5135833;27;19954;-38
2022/10/28 12:18:52;;;;;;;;;;;;;;;21.57;55.16;101321.56;5122031;27;20061;-38
2022/10/28 12:21:34;;;;;;;;;;;;;;;21.57;55.36;101316.03;5130398;27;20031;-38
2022/10/28 12:24:05;;;;;;;;;;;;;;;21.58;55.29;101314.06;5114656;27;20651;-38
2022/10/28 12:26:33;;;;;;;;;;;;;;;21.58;55.17;101322.38;5129463;27;19943;-38
2022/10/28 12:28:59;;;;;;;;;;;;;;;21.57;55.30;101312.44;5117658;27;20224;-37
2022/10/28 12:31:27;;;;;;;;;;;;;;;21.57;55.30;101321.56;5114079;27;20010;-38
2022/10/28 12:33:54;;;;;;;;;;;;;;;21.57;55.33;101315.19;5116838;27;20383;-38
2022/10/28 12:36:40;;;;;;;;;;;;;;;21.57;55.19;101309.66;5130875;27;19927;-38
2022/10/28 12:39:09;;;;;;;;;;;;;;;21.56;55.26;101308.00;5119533;27;20406;-38
2022/10/28 12:41:55;;;;;;;;;;;;;;;21.56;55.17;101306.06;5135481;27;20038;-39
2022/10/28 12:44:21;;;;;;;;;;;;;;;21.62;55.43;101312.38;5118678;27;19963;-38
2022/10/28 12:46:53;;;;;;;;;;;;;;;21.62;55.39;101320.69;5136080;27;20134;-38
2022/10/28 12:49:22;;;;;;;;;;;;;;;21.60;55.44;101318.22;5138447;27;19927;-38
2022/10/28 12:51:48;;;;;;;;;;;;;;;21.61;55.41;101324.59;5134196;27;19954;-38